Time;durP1;ratioP1;P1;durP2;ratioP2;P2;SDS_P1;SDS_P2;PMS_P1;PMS_P2;Temp;Humidity;BMP_temperature;BMP_pressure;BME280_temperature;BME280_humidity;BME280_pressure;Samples;Min_cycle;Max_cycle;Signal;HPM_P1;HPM_P2
2022/07/07 00:01:43;;;;;;;16.50;6.00;;;19.60;28.80;;;;;;5053256;28;20393;-73
2022/07/07 00:04:08;;;;;;;15.97;6.60;;;19.60;28.90;;;;;;5053868;28;20390;-73
2022/07/07 00:06:34;;;;;;;11.57;6.37;;;19.60;29.10;;;;;;5053444;28;20420;-74
2022/07/07 00:09:00;;;;;;;8.25;6.00;;;19.60;29.50;;;;;;5054431;28;20921;-73
2022/07/07 00:11:26;;;;;;;14.00;6.30;;;19.60;29.70;;;;;;5052556;28;20378;-73
2022/07/07 00:13:52;;;;;;;13.50;5.80;;;19.60;29.80;;;;;;5054577;28;20878;-73
2022/07/07 00:16:18;;;;;;;12.67;6.40;;;19.60;30.00;;;;;;5055676;28;20388;-74
2022/07/07 00:18:45;;;;;;;13.02;5.63;;;19.50;30.30;;;;;;5059012;28;20440;-73
2022/07/07 00:21:11;;;;;;;8.32;5.40;;;19.50;30.30;;;;;;5039825;28;20920;-74
2022/07/07 00:23:36;;;;;;;10.10;5.90;;;19.50;30.50;;;;;;5056574;28;20845;-73
2022/07/07 00:26:03;;;;;;;10.18;5.60;;;19.50;31.10;;;;;;5055981;28;20889;-73
2022/07/07 00:28:28;;;;;;;7.10;4.97;;;19.50;30.90;;;;;;5055500;28;20409;-73
2022/07/07 00:30:54;;;;;;;7.13;4.50;;;19.50;31.00;;;;;;5055251;28;20492;-74
2022/07/07 00:33:19;;;;;;;7.15;4.47;;;19.50;31.40;;;;;;5056325;28;20464;-73
2022/07/07 00:35:45;;;;;;;12.00;5.00;;;19.40;31.70;;;;;;5057278;28;20386;-73
2022/07/07 00:38:11;;;;;;;10.37;5.30;;;19.40;31.90;;;;;;5055010;28;20451;-73
2022/07/07 00:40:37;;;;;;;9.25;5.25;;;19.40;31.90;;;;;;5056288;28;20401;-73
2022/07/07 00:43:02;;;;;;;10.93;5.22;;;19.40;32.40;;;;;;5055638;28;20387;-74
2022/07/07 00:45:28;;;;;;;13.55;5.50;;;19.40;32.50;;;;;;5055455;28;20870;-72
2022/07/07 00:47:54;;;;;;;5.87;4.90;;;19.40;32.50;;;;;;5053259;28;20477;-73
2022/07/07 00:50:20;;;;;;;11.83;5.80;;;19.30;32.80;;;;;;5054469;28;20728;-73
2022/07/07 00:52:47;;;;;;;8.37;5.10;;;19.30;32.70;;;;;;5054254;28;20389;-73
2022/07/07 00:55:12;;;;;;;11.73;5.20;;;19.20;32.90;;;;;;5054479;28;20750;-73
2022/07/07 00:57:38;;;;;;;13.60;5.00;;;19.40;32.40;;;;;;5054289;28;20382;-71
2022/07/07 01:00:15;;;;;;;10.30;5.43;;;19.40;32.00;;;;;;5055303;28;20463;-72
2022/07/07 01:02:44;;;;;;;12.18;4.93;;;19.40;31.80;;;;;;5052855;28;20921;-72
2022/07/07 01:05:10;;;;;;;7.93;4.65;;;19.40;32.10;;;;;;5054051;28;20389;-72
2022/07/07 01:07:36;;;;;;;13.07;5.03;;;19.30;32.30;;;;;;5054216;28;20393;-73
2022/07/07 01:10:04;;;;;;;8.00;4.90;;;19.30;32.50;;;;;;5054213;28;20405;-73
2022/07/07 01:12:40;;;;;;;10.90;5.20;;;19.30;32.60;;;;;;5053696;28;20373;-73
2022/07/07 01:15:09;;;;;;;7.57;4.90;;;19.30;33.20;;;;;;5053067;28;20390;-73
2022/07/07 01:17:35;;;;;;;10.57;5.00;;;19.20;32.90;;;;;;5035737;28;20723;-73
2022/07/07 01:20:02;;;;;;;9.25;5.07;;;19.30;32.80;;;;;;5053767;28;20389;-72
2022/07/07 01:22:31;;;;;;;8.95;5.30;;;19.30;33.00;;;;;;5053401;28;20445;-73
2022/07/07 01:24:58;;;;;;;6.40;5.20;;;19.30;33.10;;;;;;5053571;28;20381;-73
2022/07/07 01:27:24;;;;;;;6.47;4.72;;;19.30;33.30;;;;;;5052767;28;20465;-73
2022/07/07 01:29:52;;;;;;;7.13;5.40;;;19.30;33.60;;;;;;5053555;28;20397;-73
2022/07/07 01:32:19;;;;;;;7.25;4.60;;;19.20;34.70;;;;;;5053611;28;20385;-72
2022/07/07 01:34:47;;;;;;;6.60;5.05;;;19.30;35.00;;;;;;5053539;28;21050;-73
2022/07/07 01:37:13;;;;;;;6.90;5.38;;;19.30;35.20;;;;;;5052224;28;20424;-72
2022/07/07 01:39:39;;;;;;;7.55;4.95;;;19.30;34.80;;;;;;5053118;28;20881;-71
2022/07/07 01:42:06;;;;;;;9.25;5.20;;;19.30;35.20;;;;;;5053090;28;20385;-73
2022/07/07 01:44:33;;;;;;;10.05;5.13;;;19.30;35.40;;;;;;5053169;28;20787;-71
2022/07/07 01:46:58;;;;;;;7.03;5.20;;;19.30;35.00;;;;;;5053112;28;20389;-71
2022/07/07 01:49:25;;;;;;;5.10;4.60;;;19.30;35.50;;;;;;5053943;28;20405;-73
2022/07/07 01:51:51;;;;;;;6.13;5.03;;;19.30;36.80;;;;;;5053209;28;20391;-72
2022/07/07 01:54:16;;;;;;;10.15;4.72;;;19.20;36.60;;;;;;5053390;28;20374;-70
2022/07/07 01:56:42;;;;;;;7.07;4.53;;;19.20;37.10;;;;;;5053052;28;20381;-71
2022/07/07 01:59:08;;;;;;;12.00;4.77;;;19.20;37.70;;;;;;5035271;28;20386;-72
2022/07/07 02:01:34;;;;;;;8.57;4.80;;;19.20;37.80;;;;;;5052894;28;20439;-72
2022/07/07 02:04:00;;;;;;;12.18;4.50;;;19.20;38.20;;;;;;5054024;28;20427;-71
2022/07/07 02:06:25;;;;;;;9.00;4.10;;;19.10;38.70;;;;;;5053358;28;20401;-71
2022/07/07 02:08:51;;;;;;;7.93;4.40;;;19.10;38.90;;;;;;5053971;28;20544;-72
2022/07/07 02:11:16;;;;;;;6.80;4.40;;;19.20;39.10;;;;;;5053294;28;20381;-72
2022/07/07 02:13:45;;;;;;;8.87;4.00;;;19.10;40.00;;;;;;5053094;28;20431;-72
2022/07/07 02:16:12;;;;;;;6.38;4.32;;;19.10;40.20;;;;;;5034901;28;20378;-72
2022/07/07 02:18:39;;;;;;;12.27;4.32;;;19.10;40.30;;;;;;5052897;28;20381;-72
2022/07/07 02:21:06;;;;;;;6.53;4.47;;;19.10;40.80;;;;;;5053289;28;20410;-71
2022/07/07 02:23:33;;;;;;;7.30;3.90;;;19.10;41.00;;;;;;5034535;28;21004;-71
2022/07/07 02:25:59;;;;;;;8.23;4.07;;;19.20;40.70;;;;;;5052536;28;20484;-72
2022/07/07 02:28:25;;;;;;;6.70;4.40;;;19.20;41.10;;;;;;5052156;28;20547;-72
2022/07/07 02:30:53;;;;;;;7.55;4.20;;;19.10;41.50;;;;;;5052246;28;20514;-73
2022/07/07 02:33:20;;;;;;;6.85;4.50;;;19.10;42.00;;;;;;5052356;28;20410;-72
2022/07/07 02:35:47;;;;;;;6.55;3.83;;;19.10;42.10;;;;;;5052173;28;20385;-71
2022/07/07 02:38:13;;;;;;;6.10;4.60;;;19.10;42.40;;;;;;5052167;28;20392;-71
2022/07/07 02:40:38;;;;;;;11.00;4.20;;;19.20;42.70;;;;;;5052365;28;20382;-71
2022/07/07 02:43:04;;;;;;;10.00;4.67;;;19.10;43.60;;;;;;5052065;28;20935;-72
2022/07/07 02:45:29;;;;;;;8.10;4.70;;;19.10;43.00;;;;;;5052077;28;20727;-72
2022/07/07 02:47:55;;;;;;;7.27;4.50;;;19.10;43.60;;;;;;5052217;28;20382;-72
2022/07/07 02:50:21;;;;;;;6.37;3.80;;;19.10;43.90;;;;;;5050842;28;20393;-72
2022/07/07 02:52:46;;;;;;;7.18;4.57;;;19.00;44.80;;;;;;5052162;28;20401;-72
2022/07/07 02:55:12;;;;;;;8.45;3.70;;;19.00;45.30;;;;;;5052033;28;20374;-72
2022/07/07 02:57:37;;;;;;;7.33;4.13;;;19.00;45.60;;;;;;5051965;28;20393;-71
2022/07/07 03:00:05;;;;;;;5.33;4.60;;;19.00;45.60;;;;;;5052041;28;20905;-71
2022/07/07 03:02:30;;;;;;;6.53;4.43;;;19.00;45.60;;;;;;5033240;28;20405;-71
2022/07/07 03:04:56;;;;;;;8.60;4.20;;;19.10;45.80;;;;;;5051951;28;20749;-72
2022/07/07 03:07:22;;;;;;;6.23;4.10;;;19.00;46.10;;;;;;5051795;28;20431;-71
2022/07/07 03:09:47;;;;;;;4.70;4.00;;;19.00;46.20;;;;;;5052144;28;20488;-71
2022/07/07 03:12:13;;;;;;;8.82;4.70;;;19.00;46.70;;;;;;5051723;28;20392;-71
2022/07/07 03:14:38;;;;;;;5.87;4.40;;;18.90;46.90;;;;;;5051752;28;20432;-72
2022/07/07 03:17:04;;;;;;;5.00;3.60;;;19.00;46.60;;;;;;5050141;28;20402;-72
2022/07/07 03:19:30;;;;;;;9.57;4.30;;;19.00;46.80;;;;;;5051914;28;20420;-71
2022/07/07 03:21:55;;;;;;;8.80;4.20;;;19.00;47.10;;;;;;5051360;28;20393;-73
2022/07/07 03:24:21;;;;;;;8.50;4.33;;;19.10;46.80;;;;;;5051491;28;20386;-72
2022/07/07 03:26:46;;;;;;;5.10;4.20;;;19.10;47.10;;;;;;5051285;28;20381;-73
2022/07/07 03:29:12;;;;;;;7.13;4.00;;;19.10;47.10;;;;;;5051219;28;21164;-72
2022/07/07 03:31:37;;;;;;;7.03;4.20;;;19.10;47.40;;;;;;5050894;28;20398;-71
2022/07/07 03:34:03;;;;;;;6.30;4.07;;;19.00;47.90;;;;;;5051530;28;20858;-71
2022/07/07 03:36:29;;;;;;;7.80;4.30;;;19.10;48.00;;;;;;5051215;28;20384;-72
2022/07/07 03:38:54;;;;;;;10.52;4.70;;;19.00;48.60;;;;;;5050894;28;21097;-72
2022/07/07 03:41:20;;;;;;;5.35;4.20;;;19.00;49.60;;;;;;5050999;28;20408;-73
2022/07/07 03:43:45;;;;;;;10.80;4.60;;;19.00;50.00;;;;;;5051257;28;20381;-73
2022/07/07 03:46:11;;;;;;;8.75;4.90;;;19.00;50.10;;;;;;5051403;28;20386;-73
2022/07/07 03:48:36;;;;;;;6.60;4.80;;;19.00;50.70;;;;;;5050906;28;20440;-73
2022/07/07 03:51:02;;;;;;;5.70;4.27;;;18.90;50.90;;;;;;5049102;28;20385;-72
2022/07/07 03:53:27;;;;;;;7.57;4.40;;;18.90;51.20;;;;;;5050819;28;20436;-71
2022/07/07 03:55:53;;;;;;;7.35;4.60;;;18.90;51.30;;;;;;5050683;28;20389;-71
2022/07/07 03:58:18;;;;;;;8.03;4.60;;;18.90;51.50;;;;;;5050794;28;20378;-71
2022/07/07 04:00:44;;;;;;;5.90;4.30;;;18.90;51.90;;;;;;5050682;28;20472;-73
2022/07/07 04:03:10;;;;;;;12.38;4.85;;;18.90;52.00;;;;;;5050560;28;20397;-71
2022/07/07 04:05:35;;;;;;;6.83;4.43;;;19.00;52.20;;;;;;5050636;28;20397;-72
2022/07/07 04:08:01;;;;;;;10.03;4.90;;;18.90;52.40;;;;;;5032496;28;20424;-72
2022/07/07 04:10:27;;;;;;;6.40;4.70;;;18.90;53.00;;;;;;5051259;28;20515;-72
2022/07/07 04:12:54;;;;;;;10.90;4.30;;;19.00;52.90;;;;;;5050769;28;20749;-73
2022/07/07 04:15:20;;;;;;;9.35;4.85;;;18.90;53.20;;;;;;5050649;28;20385;-71
2022/07/07 04:17:46;;;;;;;7.83;4.73;;;18.90;53.80;;;;;;5050281;28;20378;-73
2022/07/07 04:20:14;;;;;;;8.27;4.90;;;18.90;53.60;;;;;;5050736;28;20386;-73
2022/07/07 04:22:40;;;;;;;7.30;4.70;;;19.00;53.20;;;;;;5050471;28;20408;-73
2022/07/07 04:25:06;;;;;;;7.85;4.70;;;19.00;53.70;;;;;;5050592;28;20483;-73
2022/07/07 04:27:32;;;;;;;9.80;5.47;;;19.00;53.50;;;;;;5050255;28;20488;-73
2022/07/07 04:29:57;;;;;;;9.23;4.70;;;19.00;53.60;;;;;;5051214;28;20852;-73
2022/07/07 04:32:23;;;;;;;7.13;4.80;;;19.00;53.90;;;;;;5049535;28;20416;-72
2022/07/07 04:34:48;;;;;;;7.10;4.60;;;19.00;54.10;;;;;;5050837;28;20464;-72
2022/07/07 04:37:14;;;;;;;8.40;5.10;;;19.00;54.40;;;;;;5033226;28;20386;-72
2022/07/07 04:39:39;;;;;;;10.95;5.10;;;18.90;54.50;;;;;;5050507;28;20460;-72
2022/07/07 04:42:05;;;;;;;11.90;4.80;;;18.90;55.00;;;;;;5050242;28;20387;-72
2022/07/07 04:44:31;;;;;;;7.57;5.30;;;19.00;54.60;;;;;;5050236;28;20486;-73
2022/07/07 04:46:56;;;;;;;8.20;5.30;;;19.00;54.50;;;;;;5050342;28;20898;-73
2022/07/07 04:49:22;;;;;;;8.25;5.00;;;19.00;54.50;;;;;;5050252;28;20401;-73
2022/07/07 04:51:48;;;;;;;9.45;5.25;;;19.00;54.50;;;;;;5050098;28;20852;-73
2022/07/07 04:54:14;;;;;;;8.82;5.10;;;18.90;55.50;;;;;;5050982;28;20377;-73
2022/07/07 04:56:39;;;;;;;9.90;4.90;;;18.90;57.90;;;;;;5050432;28;20382;-73
2022/07/07 04:59:05;;;;;;;11.80;5.57;;;18.80;61.70;;;;;;5050713;28;20451;-72
2022/07/07 05:01:31;;;;;;;9.23;5.13;;;18.80;62.30;;;;;;5050082;28;20396;-71
2022/07/07 05:03:56;;;;;;;8.40;5.20;;;18.70;65.00;;;;;;5054449;28;20390;-72
2022/07/07 05:06:22;;;;;;;13.82;5.70;;;18.60;66.80;;;;;;5053913;28;20397;-71
2022/07/07 05:08:47;;;;;;;11.85;5.20;;;18.50;69.40;;;;;;5054328;28;20401;-72
2022/07/07 05:11:13;;;;;;;6.30;5.23;;;18.50;69.60;;;;;;5053744;28;20815;-73
2022/07/07 05:13:38;;;;;;;9.00;5.63;;;18.50;71.20;;;;;;5052376;28;21044;-72
2022/07/07 05:16:05;;;;;;;10.60;6.05;;;18.40;76.00;;;;;;5053679;28;20464;-74
2022/07/07 05:18:31;;;;;;;9.68;5.60;;;18.30;83.50;;;;;;5053721;28;20387;-72
2022/07/07 05:20:57;;;;;;;11.18;6.40;;;18.30;82.30;;;;;;5053512;28;20385;-72
2022/07/07 05:23:25;;;;;;;12.30;6.90;;;18.30;88.10;;;;;;5037465;28;20382;-72
2022/07/07 05:25:51;;;;;;;13.65;7.68;;;18.30;92.00;;;;;;5053573;28;20413;-72
2022/07/07 05:28:17;;;;;;;18.92;8.15;;;18.10;95.40;;;;;;5052286;28;20412;-73
2022/07/07 05:30:42;;;;;;;16.05;7.80;;;17.80;99.90;;;;;;5053542;28;20378;-71
2022/07/07 05:33:08;;;;;;;10.88;7.18;;;17.50;99.90;;;;;;5053625;28;20384;-73
2022/07/07 05:35:34;;;;;;;8.13;6.50;;;17.40;99.90;;;;;;5054537;28;20743;-73
2022/07/07 05:38:01;;;;;;;10.52;7.45;;;17.20;99.90;;;;;;5053842;28;20388;-73
2022/07/07 05:40:27;;;;;;;13.27;7.05;;;17.20;99.90;;;;;;5054079;28;20392;-72
2022/07/07 05:42:53;;;;;;;12.97;7.63;;;17.10;99.90;;;;;;5053577;28;20767;-72
2022/07/07 05:45:19;;;;;;;10.90;7.50;;;17.20;99.90;;;;;;5053376;28;20539;-72
2022/07/07 05:47:45;;;;;;;12.20;8.13;;;17.30;99.90;;;;;;5053047;28;20443;-72
2022/07/07 05:50:10;;;;;;;10.77;7.68;;;17.40;99.90;;;;;;5035141;28;20488;-72
2022/07/07 05:52:36;;;;;;;13.32;7.53;;;17.50;99.90;;;;;;5053090;28;20487;-72
2022/07/07 05:55:02;;;;;;;13.80;8.00;;;17.50;99.90;;;;;;5053810;28;20382;-72
2022/07/07 05:57:27;;;;;;;14.80;8.30;;;17.60;99.90;;;;;;5053345;28;20785;-71
2022/07/07 05:59:53;;;;;;;13.10;8.40;;;17.60;99.90;;;;;;5052733;28;20467;-71
2022/07/07 06:02:19;;;;;;;15.23;8.80;;;17.60;99.90;;;;;;5052574;28;20388;-71
2022/07/07 06:04:44;;;;;;;11.60;7.80;;;17.70;99.90;;;;;;5053220;28;20377;-72
2022/07/07 06:07:10;;;;;;;16.65;8.30;;;17.80;99.90;;;;;;5053761;28;20389;-72
2022/07/07 06:09:35;;;;;;;13.80;8.07;;;17.80;99.90;;;;;;5037667;28;20406;-73
2022/07/07 06:12:01;;;;;;;12.10;7.20;;;17.80;99.90;;;;;;5058441;28;20408;-73
2022/07/07 06:14:28;;;;;;;9.45;6.30;;;17.70;99.90;;;;;;5057549;28;20408;-73
2022/07/07 06:16:54;;;;;;;12.30;7.35;;;17.60;99.90;;;;;;5041442;28;20381;-73
2022/07/07 06:19:19;;;;;;;9.98;7.05;;;17.50;99.90;;;;;;5041093;28;20396;-73
2022/07/07 06:21:45;;;;;;;13.23;6.80;;;17.30;99.90;;;;;;5062678;28;20417;-73
2022/07/07 06:24:11;;;;;;;11.00;6.60;;;17.20;99.90;;;;;;5064076;28;20497;-72
2022/07/07 06:26:37;;;;;;;11.48;7.55;;;17.10;99.90;;;;;;5062240;28;20433;-72
2022/07/07 06:29:03;;;;;;;12.00;8.57;;;17.10;99.90;;;;;;5059053;28;20821;-72
2022/07/07 06:31:29;;;;;;;8.80;5.97;;;17.10;99.90;;;;;;5067385;28;20391;-72
2022/07/07 06:33:55;;;;;;;11.05;7.70;;;17.10;99.90;;;;;;5080097;28;20784;-72
2022/07/07 06:36:21;;;;;;;12.25;6.95;;;17.20;99.90;;;;;;5059468;28;20389;-72
2022/07/07 06:38:46;;;;;;;10.07;6.90;;;17.40;99.90;;;;;;5066698;28;20480;-71
2022/07/07 06:41:12;;;;;;;11.48;7.20;;;17.50;99.90;;;;;;5056515;28;20458;-73
2022/07/07 06:43:37;;;;;;;9.13;6.17;;;17.40;99.90;;;;;;5057490;28;20596;-72
2022/07/07 06:46:03;;;;;;;9.73;6.90;;;17.50;99.90;;;;;;5053573;28;20423;-73
2022/07/07 06:48:29;;;;;;;9.83;6.90;;;17.60;99.90;;;;;;5058404;28;20485;-74
2022/07/07 06:50:54;;;;;;;10.20;6.50;;;17.70;99.90;;;;;;5069530;28;20742;-74
2022/07/07 06:53:20;;;;;;;9.00;6.78;;;17.80;99.90;;;;;;5067496;28;20495;-73
2022/07/07 06:55:46;;;;;;;7.60;6.15;;;17.80;99.90;;;;;;5065008;28;20469;-73
2022/07/07 06:58:12;;;;;;;7.70;5.37;;;18.00;99.90;;;;;;5052314;28;20403;-72
2022/07/07 07:00:39;;;;;;;8.93;5.90;;;18.10;95.50;;;;;;5030150;28;20397;-71
2022/07/07 07:03:05;;;;;;;7.40;4.35;;;18.20;93.50;;;;;;5049713;28;20401;-72
2022/07/07 07:05:30;;;;;;;6.60;3.70;;;18.20;91.80;;;;;;5050119;28;20403;-73
2022/07/07 07:07:56;;;;;;;5.40;4.40;;;18.30;85.90;;;;;;5050111;28;20418;-73
2022/07/07 07:10:22;;;;;;;8.13;4.63;;;18.20;89.60;;;;;;5044577;28;20892;-72
2022/07/07 07:12:47;;;;;;;4.43;4.03;;;18.40;90.20;;;;;;5069139;28;20380;-72
2022/07/07 07:15:13;;;;;;;6.63;4.05;;;18.40;86.40;;;;;;5067241;28;20429;-72
2022/07/07 07:17:39;;;;;;;9.52;3.67;;;18.50;81.80;;;;;;5058958;28;20384;-72
2022/07/07 07:20:05;;;;;;;4.90;3.60;;;18.40;84.90;;;;;;5061867;28;20450;-73
2022/07/07 07:22:40;;;;;;;5.63;3.40;;;18.60;82.10;;;;;;5049778;28;20405;-73
2022/07/07 07:25:07;;;;;;;4.87;3.10;;;18.20;80.30;;;;;;5056203;28;20399;-74
2022/07/07 07:27:34;;;;;;;9.48;3.70;;;17.90;89.00;;;;;;5057860;28;20448;-72
2022/07/07 07:30:00;;;;;;;7.20;3.83;;;17.70;96.80;;;;;;5049036;28;20401;-72
2022/07/07 07:32:26;;;;;;;5.70;3.87;;;17.60;97.10;;;;;;5057544;28;20749;-72
2022/07/07 07:34:52;;;;;;;3.40;2.50;;;17.60;98.70;;;;;;5069586;28;20383;-72
2022/07/07 07:37:17;;;;;;;4.82;2.92;;;17.60;88.30;;;;;;5069765;28;20800;-72
2022/07/07 07:39:43;;;;;;;3.63;2.80;;;17.80;89.60;;;;;;5051813;28;20397;-72
2022/07/07 07:42:08;;;;;;;4.90;2.40;;;18.00;84.90;;;;;;5049096;28;20512;-72
2022/07/07 07:47:18;;;;;;;6.50;2.20;;;18.60;80.60;;;;;;5048946;28;20384;-72
2022/07/07 07:49:44;;;;;;;4.20;2.60;;;18.40;72.30;;;;;;5049035;28;20401;-72
2022/07/07 07:52:10;;;;;;;4.80;2.80;;;18.30;76.10;;;;;;5048546;28;20476;-72
2022/07/07 07:54:35;;;;;;;3.87;2.53;;;18.30;77.70;;;;;;5051262;28;20401;-72
2022/07/07 07:57:01;;;;;;;5.60;2.80;;;18.40;80.10;;;;;;5068643;28;20803;-72
2022/07/07 07:59:27;;;;;;;3.72;2.17;;;18.80;71.80;;;;;;5069219;28;20411;-73
2022/07/07 08:01:53;;;;;;;5.15;2.30;;;18.90;68.20;;;;;;5067469;28;20480;-71
2022/07/07 08:04:18;;;;;;;3.42;2.35;;;18.60;66.50;;;;;;5068595;28;20824;-72
2022/07/07 08:06:44;;;;;;;4.17;1.67;;;18.60;68.30;;;;;;5067428;28;20476;-74
2022/07/07 08:09:10;;;;;;;4.38;2.38;;;18.40;64.80;;;;;;5068362;28;20406;-73
2022/07/07 08:11:36;;;;;;;7.00;2.20;;;18.30;67.70;;;;;;5048580;28;20397;-72
2022/07/07 08:14:02;;;;;;;5.82;1.80;;;18.20;65.30;;;;;;5030893;28;20463;-71
2022/07/07 08:16:28;;;;;;;7.80;1.90;;;18.20;63.00;;;;;;5049575;28;20396;-72
2022/07/07 08:18:53;;;;;;;5.65;2.47;;;18.00;64.00;;;;;;5048716;28;20884;-73
2022/07/07 08:21:19;;;;;;;6.37;2.50;;;17.90;65.40;;;;;;5049330;28;20408;-72
2022/07/07 08:23:45;;;;;;;5.23;1.93;;;17.80;68.90;;;;;;5059179;28;20415;-72
2022/07/07 08:26:12;;;;;;;8.57;1.90;;;17.70;76.40;;;;;;5068879;28;20399;-72
2022/07/07 08:28:38;;;;;;;8.07;2.30;;;17.30;85.30;;;;;;5063016;28;20486;-74
2022/07/07 08:31:06;;;;;;;6.20;2.30;;;17.00;91.70;;;;;;5069072;28;20375;-72
2022/07/07 08:33:32;;;;;;;7.32;2.30;;;17.10;91.40;;;;;;5068369;28;20376;-72
2022/07/07 08:35:58;;;;;;;7.78;2.45;;;17.10;89.80;;;;;;5068527;28;20386;-74
2022/07/07 08:38:23;;;;;;;5.00;1.80;;;17.30;82.50;;;;;;5071417;28;20391;-73
2022/07/07 08:40:49;;;;;;;7.97;2.17;;;17.50;84.70;;;;;;5059329;28;20392;-74
2022/07/07 08:43:15;;;;;;;6.05;1.40;;;17.70;80.50;;;;;;5052174;28;20397;-73
2022/07/07 08:45:41;;;;;;;3.40;1.50;;;17.90;69.90;;;;;;5052482;28;20949;-72
2022/07/07 08:48:07;;;;;;;5.50;1.63;;;18.10;63.90;;;;;;5056488;28;20399;-74
2022/07/07 08:50:34;;;;;;;4.53;1.10;;;18.40;58.80;;;;;;5054546;28;20399;-73
2022/07/07 08:53:01;;;;;;;6.38;1.80;;;18.80;58.00;;;;;;5072419;28;20437;-72
2022/07/07 08:55:30;;;;;;;7.20;1.50;;;19.00;53.20;;;;;;5054484;28;20790;-72
2022/07/07 08:57:56;;;;;;;3.30;1.50;;;19.00;52.30;;;;;;5066755;28;20478;-72
2022/07/07 09:00:22;;;;;;;6.57;1.50;;;18.90;47.20;;;;;;5067429;28;20482;-72
2022/07/07 09:02:49;;;;;;;5.65;1.45;;;19.00;46.80;;;;;;5061053;28;20965;-71
2022/07/07 09:05:15;;;;;;;7.03;1.40;;;19.10;46.40;;;;;;5034439;28;20397;-70
2022/07/07 09:07:53;;;;;;;5.03;1.43;;;19.00;48.80;;;;;;5051961;28;20385;-71
2022/07/07 09:10:34;;;;;;;4.20;1.40;;;19.30;47.50;;;;;;5052419;28;20393;-72
2022/07/07 09:13:01;;;;;;;7.65;1.38;;;19.60;44.20;;;;;;5052566;28;20396;-72
2022/07/07 09:15:27;;;;;;;5.28;1.52;;;19.40;42.50;;;;;;5054206;28;20387;-72
2022/07/07 09:17:53;;;;;;;5.28;1.50;;;19.80;44.80;;;;;;5055720;28;20758;-71
2022/07/07 09:20:19;;;;;;;3.50;1.67;;;19.80;40.90;;;;;;5053828;28;20416;-72
2022/07/07 09:22:52;;;;;;;7.20;1.80;;;19.50;42.50;;;;;;5052642;28;20920;-71
2022/07/07 09:25:20;;;;;;;5.57;1.48;;;19.40;41.30;;;;;;5061474;28;20392;-71
2022/07/07 09:28:03;;;;;;;4.82;1.60;;;19.50;39.50;;;;;;5052150;28;20404;-71
2022/07/07 09:30:40;;;;;;;4.55;1.35;;;19.50;41.30;;;;;;5033559;28;20509;-71
2022/07/07 09:33:07;;;;;;;4.03;1.00;;;19.30;41.50;;;;;;5051597;28;20409;-72
2022/07/07 09:38:24;;;;;;;4.95;2.10;;;18.20;67.10;;;;;;5062986;28;20932;-71
2022/07/07 09:41:03;;;;;;;7.00;1.92;;;18.20;73.40;;;;;;5048443;28;20417;-72
2022/07/07 09:43:32;;;;;;;5.80;1.52;;;18.20;66.80;;;;;;5063820;28;20405;-72
2022/07/07 09:46:18;;;;;;;5.30;1.90;;;18.50;62.20;;;;;;5055362;28;20397;-72
2022/07/07 09:48:49;;;;;;;2.30;1.10;;;18.80;59.70;;;;;;5070345;28;20896;-71
2022/07/07 09:51:19;;;;;;;3.78;1.25;;;18.90;52.00;;;;;;5060748;28;20385;-71
2022/07/07 09:54:03;;;;;;;4.22;0.95;;;19.00;50.80;;;;;;5051866;28;20401;-71
2022/07/07 09:56:30;;;;;;;2.78;1.30;;;18.80;52.60;;;;;;5051492;28;20457;-71
2022/07/07 09:58:57;;;;;;;8.52;1.65;;;19.10;53.00;;;;;;5051498;28;20763;-72
2022/07/07 10:01:25;;;;;;;3.85;1.02;;;19.40;50.50;;;;;;5034622;28;20476;-70
2022/07/07 10:03:55;;;;;;;2.67;1.50;;;19.60;45.80;;;;;;5070803;28;20399;-72
2022/07/07 10:06:21;;;;;;;6.05;1.50;;;20.00;46.80;;;;;;5070934;28;20751;-72
2022/07/07 10:08:53;;;;;;;6.10;1.40;;;20.10;44.50;;;;;;5069965;28;20494;-73
2022/07/07 10:11:20;;;;;;;5.53;1.35;;;20.30;42.10;;;;;;5072048;28;20803;-72
2022/07/07 10:13:49;;;;;;;3.33;1.20;;;20.20;39.60;;;;;;5072661;28;20411;-72
2022/07/07 10:16:14;;;;;;;4.30;1.20;;;19.60;40.30;;;;;;5054827;28;20465;-71
2022/07/07 10:18:42;;;;;;;4.20;0.95;;;19.20;43.20;;;;;;5052493;28;20718;-72
2022/07/07 10:21:08;;;;;;;3.15;1.40;;;19.00;42.70;;;;;;5054656;28;20401;-71
2022/07/07 10:23:34;;;;;;;3.03;1.20;;;18.60;50.60;;;;;;5051483;28;20765;-71
2022/07/07 10:26:04;;;;;;;2.70;1.20;;;18.30;51.30;;;;;;5052329;28;20473;-71
2022/07/07 10:28:59;;;;;;;6.10;1.20;;;18.60;49.70;;;;;;5055686;28;20412;-71
2022/07/07 10:31:27;;;;;;;3.13;1.30;;;19.10;45.60;;;;;;5052656;28;20805;-72
2022/07/07 10:34:08;;;;;;;1.48;1.00;;;19.60;42.10;;;;;;5052722;28;20892;-72
2022/07/07 10:36:49;;;;;;;3.53;1.20;;;19.80;37.90;;;;;;5051465;28;20421;-73
2022/07/07 10:39:20;;;;;;;4.20;1.40;;;20.10;36.30;;;;;;5067019;28;20857;-72
2022/07/07 10:42:04;;;;;;;2.42;1.10;;;20.20;35.90;;;;;;5070229;28;20396;-72
2022/07/07 10:44:36;;;;;;;6.70;1.60;;;20.10;36.90;;;;;;5059633;28;20397;-73
2022/07/07 10:47:24;;;;;;;3.65;1.27;;;19.60;37.70;;;;;;5067797;28;20851;-71
2022/07/07 10:49:55;;;;;;;3.70;1.43;;;19.20;39.70;;;;;;5060059;28;20465;-71
2022/07/07 10:52:25;;;;;;;5.50;1.50;;;19.00;43.30;;;;;;5062347;28;20390;-71
2022/07/07 10:54:58;;;;;;;4.35;1.42;;;18.40;53.80;;;;;;5051657;28;20385;-72
2022/07/07 10:57:26;;;;;;;2.97;1.10;;;17.90;65.40;;;;;;5051411;28;20377;-75
2022/07/07 11:00:04;;;;;;;10.52;1.80;;;17.60;66.40;;;;;;5041483;28;20975;-74
2022/07/07 11:02:29;;;;;;;7.45;1.60;;;17.60;67.80;;;;;;5064373;28;20399;-72
2022/07/07 11:04:56;;;;;;;5.53;1.40;;;17.80;69.10;;;;;;5067031;28;20456;-72
2022/07/07 11:07:24;;;;;;;3.80;1.20;;;18.40;62.90;;;;;;5060226;28;20400;-72
2022/07/07 11:10:06;;;;;;;6.20;1.10;;;19.00;54.60;;;;;;5051129;28;20397;-72
2022/07/07 11:12:53;;;;;;;3.30;1.20;;;19.60;48.00;;;;;;5051198;28;20423;-72
2022/07/07 11:15:21;;;;;;;3.10;1.50;;;19.80;44.40;;;;;;5052114;28;20377;-72
2022/07/07 11:17:55;;;;;;;3.50;1.00;;;20.30;40.10;;;;;;5055307;28;20416;-71
2022/07/07 11:20:23;;;;;;;4.90;0.90;;;20.00;39.00;;;;;;5051655;28;20396;-73
2022/07/07 11:22:53;;;;;;;4.40;1.50;;;19.60;40.50;;;;;;5060350;28;20745;-73
2022/07/07 11:25:23;;;;;;;2.28;1.00;;;19.40;41.90;;;;;;5071630;28;20455;-73
2022/07/07 11:27:50;;;;;;;1.92;1.08;;;19.40;42.40;;;;;;5047714;28;20429;-73
2022/07/07 11:30:20;;;;;;;5.15;1.20;;;19.30;45.00;;;;;;5051374;28;20458;-73
2022/07/07 11:32:46;;;;;;;3.25;1.20;;;19.20;44.10;;;;;;5037307;28;20463;-72
2022/07/07 11:35:13;;;;;;;2.93;1.40;;;19.00;46.10;;;;;;5071963;28;20406;-72
2022/07/07 11:37:45;;;;;;;2.50;1.20;;;18.90;50.10;;;;;;5072106;28;20857;-72
2022/07/07 11:40:13;;;;;;;4.60;1.40;;;18.60;51.20;;;;;;5071932;28;20741;-72
2022/07/07 11:42:41;;;;;;;3.60;1.50;;;18.60;53.40;;;;;;5070953;28;20514;-71
2022/07/07 11:45:19;;;;;;;4.70;1.30;;;18.90;50.70;;;;;;5071366;28;20449;-72
2022/07/07 11:47:46;;;;;;;3.05;1.60;;;19.10;49.50;;;;;;5068335;28;20423;-71
2022/07/07 11:50:11;;;;;;;4.90;1.38;;;19.50;48.50;;;;;;5070903;28;20749;-72
2022/07/07 11:52:37;;;;;;;2.43;1.40;;;20.00;44.30;;;;;;5067349;28;20404;-74
2022/07/07 11:55:04;;;;;;;5.10;2.00;;;20.60;40.90;;;;;;5051410;28;20503;-72
2022/07/07 11:57:32;;;;;;;4.93;1.67;;;21.20;36.40;;;;;;5051290;28;20456;-72
2022/07/07 12:00:17;;;;;;;4.70;1.70;;;21.50;33.90;;;;;;5051156;28;20386;-71
2022/07/07 12:02:45;;;;;;;3.20;1.20;;;21.20;35.60;;;;;;5051452;28;20398;-72
2022/07/07 12:05:11;;;;;;;2.13;0.90;;;20.60;35.70;;;;;;5052198;28;20444;-72
2022/07/07 12:07:38;;;;;;;3.22;1.33;;;20.00;37.90;;;;;;5054860;28;20480;-72
2022/07/07 12:10:04;;;;;;;3.47;1.10;;;19.60;40.00;;;;;;5053317;28;20405;-72
2022/07/07 12:12:29;;;;;;;3.67;1.25;;;19.50;41.40;;;;;;5053456;28;20761;-71
2022/07/07 12:14:55;;;;;;;1.70;1.10;;;19.40;41.90;;;;;;5053959;28;20493;-72
2022/07/07 12:17:39;;;;;;;6.70;1.30;;;19.40;42.60;;;;;;5055670;28;20769;-72
2022/07/07 12:20:06;;;;;;;1.40;1.10;;;19.50;40.80;;;;;;5071729;28;20391;-72
2022/07/07 12:22:36;;;;;;;1.80;0.90;;;19.30;40.20;;;;;;5067254;28;20897;-73
2022/07/07 12:25:06;;;;;;;2.80;1.30;;;19.20;39.70;;;;;;5050439;28;20758;-71
2022/07/07 12:27:32;;;;;;;3.75;1.30;;;19.20;41.00;;;;;;5050834;28;20896;-72
2022/07/07 12:29:59;;;;;;;1.00;0.90;;;19.60;38.70;;;;;;5051394;28;20416;-72
2022/07/07 12:32:25;;;;;;;1.77;1.08;;;20.00;36.70;;;;;;5032489;28;20397;-71
2022/07/07 12:34:50;;;;;;;3.00;1.20;;;20.40;35.00;;;;;;5050867;28;20502;-72
2022/07/07 12:37:16;;;;;;;4.10;1.40;;;20.90;33.60;;;;;;5053328;28;20796;-71
2022/07/07 12:39:43;;;;;;;2.90;1.13;;;21.10;30.80;;;;;;5050688;28;20804;-71
2022/07/07 12:42:09;;;;;;;5.60;2.40;;;21.30;30.50;;;;;;5065169;28;20391;-73
2022/07/07 12:44:35;;;;;;;3.80;1.60;;;20.90;33.20;;;;;;5070473;28;20391;-72
2022/07/07 12:47:01;;;;;;;1.75;1.27;;;20.30;34.20;;;;;;5070512;28;20383;-73
2022/07/07 12:49:27;;;;;;;4.13;1.30;;;20.00;36.60;;;;;;5057468;28;20552;-73
2022/07/07 12:51:55;;;;;;;4.40;1.30;;;19.90;37.10;;;;;;5049778;28;20895;-71